Time;durP1;ratioP1;P1;durP2;ratioP2;P2;SDS_P1;SDS_P2;PMS_P1;PMS_P2;Temp;Humidity;BMP_temperature;BMP_pressure;BME280_temperature;BME280_humidity;BME280_pressure;Samples;Min_cycle;Max_cycle;Signal;HPM_P1;HPM_P2
2022/10/07 00:02:06;;;;;;;47.00;3.97;;;;;;;11.72;92.04;102559.31;4995758;28;20044;-40
2022/10/07 00:04:32;;;;;;;52.40;4.15;;;;;;;11.73;92.16;102558.31;5009812;28;20109;-40
2022/10/07 00:06:57;;;;;;;37.85;3.53;;;;;;;11.71;92.73;102549.50;5009507;28;20457;-40
2022/10/07 00:09:23;;;;;;;39.20;3.65;;;;;;;11.72;92.45;102554.75;5012758;28;20030;-40
2022/10/07 00:11:49;;;;;;;37.50;3.20;;;;;;;11.73;92.65;102551.06;5013436;28;20149;-40
2022/10/07 00:14:15;;;;;;;41.55;3.53;;;;;;;11.73;92.59;102551.06;5013555;28;20034;-40
2022/10/07 00:16:40;;;;;;;41.38;4.05;;;;;;;11.73;92.64;102550.22;5013595;28;20030;-40
2022/10/07 00:19:09;;;;;;;33.70;3.65;;;;;;;11.73;92.92;102553.75;5013078;28;20060;-40
2022/10/07 00:21:36;;;;;;;43.40;3.95;;;;;;;11.72;93.07;102554.75;5013591;28;20040;-40
2022/10/07 00:24:01;;;;;;;46.78;6.10;;;;;;;11.73;93.34;102550.22;5013135;28;20036;-40
2022/10/07 00:26:29;;;;;;;50.05;3.75;;;;;;;11.76;93.58;102544.50;5013333;28;20029;-40
2022/10/07 00:28:55;;;;;;;42.78;4.20;;;;;;;11.76;93.72;102547.22;5012899;28;20026;-40
2022/10/07 00:31:23;;;;;;;30.67;4.07;;;;;;;11.76;93.57;102541.81;5013277;28;20492;-40
2022/10/07 00:33:49;;;;;;;29.05;3.03;;;;;;;11.77;93.65;102544.38;4995526;28;20033;-40
2022/10/07 00:36:18;;;;;;;36.10;3.50;;;;;;;11.76;93.90;102536.44;5013153;28;20030;-40
2022/10/07 00:38:43;;;;;;;54.45;4.97;;;;;;;11.76;94.06;102528.34;5012646;28;20149;-40
2022/10/07 00:41:16;;;;;;;43.70;3.72;;;;;;;11.76;94.07;102531.03;5012418;28;20125;-40
2022/10/07 00:43:41;;;;;;;38.75;4.50;;;;;;;11.72;94.26;102533.19;5004269;28;20041;-40
2022/10/07 00:46:11;;;;;;;39.83;3.85;;;;;;;11.70;94.32;102528.94;5013456;28;20100;-40
2022/10/07 00:48:38;;;;;;;28.65;3.60;;;;;;;11.68;94.56;102530.94;5012804;28;20034;-40
2022/10/07 00:51:04;;;;;;;36.67;3.55;;;;;;;11.64;94.92;102525.84;4995080;28;20034;-40
2022/10/07 00:53:30;;;;;;;41.15;3.53;;;;;;;11.63;95.19;102529.50;4993474;28;20030;-40
2022/10/07 00:55:56;;;;;;;45.63;3.53;;;;;;;11.65;95.47;102529.38;4995418;28;20139;-40
2022/10/07 00:58:23;;;;;;;39.00;3.67;;;;;;;11.63;95.61;102529.50;4995247;28;20084;-40
2022/10/07 01:00:48;;;;;;;41.35;3.33;;;;;;;11.63;95.72;102526.81;4995165;28;20513;-40
2022/10/07 01:03:14;;;;;;;25.52;3.10;;;;;;;11.59;95.81;102522.72;5012454;28;20061;-40
2022/10/07 01:05:39;;;;;;;34.45;3.60;;;;;;;11.59;96.11;102514.63;4994816;28;20037;-42
2022/10/07 01:08:05;;;;;;;33.08;3.35;;;;;;;11.57;96.26;102513.94;5012489;28;20401;-40
2022/10/07 01:10:37;;;;;;;46.13;4.03;;;;;;;11.57;96.33;102513.94;5012168;28;20034;-40
2022/10/07 01:13:07;;;;;;;39.85;4.72;;;;;;;11.54;96.67;102506.13;5012399;28;20087;-40
2022/10/07 01:15:42;;;;;;;55.15;4.35;;;;;;;11.54;96.87;102503.44;4994959;28;20030;-40
2022/10/07 01:18:12;;;;;;;48.42;4.32;;;;;;;11.54;97.15;102492.66;5012443;28;20103;-40
2022/10/07 01:20:57;;;;;;;38.75;3.70;;;;;;;11.54;97.39;102489.97;5011014;28;20038;-40
2022/10/07 01:23:43;;;;;;;45.70;3.13;;;;;;;11.54;97.44;102486.41;4994390;28;20072;-40
2022/10/07 01:26:40;;;;;;;35.53;3.88;;;;;;;11.54;97.79;102475.63;5012017;28;20436;-39
2022/10/07 01:29:13;;;;;;;33.35;3.28;;;;;;;11.53;97.87;102471.22;5005386;28;20026;-40
2022/10/07 01:31:46;;;;;;;45.33;3.85;;;;;;;11.51;98.25;102487.56;5011737;28;20037;-40
2022/10/07 01:34:13;;;;;;;35.50;3.33;;;;;;;11.52;98.49;102477.63;4994452;28;20021;-40
2022/10/07 01:36:39;;;;;;;48.45;3.38;;;;;;;11.51;98.72;102476.78;4993985;28;20038;-40
2022/10/07 01:39:08;;;;;;;37.15;4.10;;;;;;;11.51;98.96;102471.38;4994312;28;20113;-40
2022/10/07 01:41:36;;;;;;;40.25;4.38;;;;;;;11.50;98.99;102466.97;4993949;28;20057;-40
2022/10/07 01:44:01;;;;;;;;;;;;;;;11.50;99.06;102458.88;4994226;28;20029;-40
2022/10/07 01:46:27;;;;;;;48.33;4.70;;;;;;;11.50;99.14;102461.56;5011479;28;19932;-42
2022/10/07 01:48:53;;;;;;;52.63;3.40;;;;;;;11.50;99.26;102452.66;4994248;28;20056;-40
2022/10/07 01:51:23;;;;;;;37.78;4.93;;;;;;;11.50;99.49;102441.88;4984722;28;20034;-40
2022/10/07 01:54:27;;;;;;;33.10;2.88;;;;;;;11.53;99.47;102441.56;5006720;28;20030;-40
2022/10/07 01:56:58;;;;;;;37.50;3.80;;;;;;;11.49;99.67;102432.94;4993607;28;20038;-40
2022/10/07 01:59:52;;;;;;;43.28;3.88;;;;;;;11.48;99.97;102427.66;5011361;28;20152;-40
2022/10/07 02:02:33;;;;;;;45.50;4.07;;;;;;;11.47;99.94;102424.13;5011134;28;20175;-40
2022/10/07 02:05:26;;;;;;;48.15;4.25;;;;;;;11.45;100.00;102420.72;5011671;28;20143;-40
2022/10/07 02:08:19;;;;;;;37.63;3.47;;;;;;;11.48;100.00;102412.38;4993750;28;20054;-41
2022/10/07 02:11:09;;;;;;;33.63;3.75;;;;;;;11.46;100.00;102410.81;5011231;28;20163;-40
2022/10/07 02:13:43;;;;;;;50.67;3.55;;;;;;;11.45;100.00;102401.84;5011269;28;20101;-41
2022/10/07 02:16:18;;;;;;;36.25;5.05;;;;;;;11.46;100.00;102397.34;5011324;28;20037;-40
2022/10/07 02:18:49;;;;;;;41.33;3.83;;;;;;;11.46;100.00;102406.28;5010970;28;20366;-40
2022/10/07 02:21:21;;;;;;;45.63;4.03;;;;;;;11.46;100.00;102395.50;4993492;28;20056;-40
2022/10/07 02:23:47;;;;;;;54.40;3.17;;;;;;;11.45;100.00;102393.78;4993302;28;20037;-40
2022/10/07 02:26:13;;;;;;;45.88;3.63;;;;;;;11.46;100.00;102395.50;4981407;28;20110;-40
2022/10/07 02:28:41;;;;;;;46.30;3.22;;;;;;;11.44;100.00;102389.38;4991526;28;20036;-40
2022/10/07 02:31:08;;;;;;;40.45;4.32;;;;;;;11.44;100.00;102392.09;4992650;28;20030;-40
2022/10/07 02:33:34;;;;;;;41.53;3.45;;;;;;;11.45;100.00;102385.69;4993539;28;20034;-40
2022/10/07 02:36:02;;;;;;;40.47;3.38;;;;;;;11.41;100.00;102377.06;4993399;28;20060;-40
2022/10/07 02:38:28;;;;;;;57.15;6.05;;;;;;;11.40;100.00;102375.38;4992769;28;20104;-40
2022/10/07 02:41:10;;;;;;;36.45;3.08;;;;;;;11.37;100.00;102377.50;5010537;28;20453;-40
2022/10/07 02:43:45;;;;;;;35.65;4.38;;;;;;;11.37;100.00;102372.09;5005355;28;20513;-40
2022/10/07 02:46:17;;;;;;;40.90;3.08;;;;;;;11.36;100.00;102365.03;4993559;28;20374;-40
2022/10/07 02:48:46;;;;;;;38.80;4.30;;;;;;;11.33;100.00;102366.19;4992814;28;20034;-40
2022/10/07 02:51:17;;;;;;;41.92;3.78;;;;;;;11.32;100.00;102363.63;4993112;28;20480;-40
2022/10/07 02:53:43;;;;;;;41.67;4.60;;;;;;;11.31;100.00;102365.47;5010604;28;20060;-40
2022/10/07 02:56:09;;;;;;;47.22;3.50;;;;;;;11.31;100.00;102364.63;4988658;28;20018;-41
2022/10/07 02:58:34;;;;;;;51.50;4.13;;;;;;;11.29;100.00;102358.53;5010175;28;20033;-40
2022/10/07 03:01:01;;;;;;;43.47;3.60;;;;;;;11.30;100.00;102352.16;5010228;28;20065;-41
2022/10/07 03:03:26;;;;;;;27.33;3.65;;;;;;;11.28;100.00;102351.47;5010568;28;20065;-40
2022/10/07 03:05:52;;;;;;;45.50;3.38;;;;;;;11.27;100.00;102352.44;4992846;28;20025;-41
2022/10/07 03:08:19;;;;;;;33.97;3.40;;;;;;;11.26;100.00;102348.91;4992140;28;20088;-40
2022/10/07 03:10:44;;;;;;;54.22;3.78;;;;;;;11.26;100.00;102343.50;4992903;28;20033;-40
2022/10/07 03:13:09;;;;;;;31.17;3.47;;;;;;;11.24;100.00;102345.50;5009934;28;20434;-40
2022/10/07 03:15:36;;;;;;;48.78;3.75;;;;;;;11.24;100.00;102340.09;5010741;28;20497;-40
2022/10/07 03:18:02;;;;;;;36.92;3.28;;;;;;;11.24;100.00;102340.09;4992852;28;20120;-40
2022/10/07 03:20:31;;;;;;;35.03;3.88;;;;;;;11.23;100.00;102343.81;5010218;28;20030;-40
2022/10/07 03:22:59;;;;;;;51.03;3.53;;;;;;;11.23;100.00;102329.50;5010213;28;20060;-40
2022/10/07 03:25:25;;;;;;;48.17;4.30;;;;;;;11.24;100.00;102325.78;5010292;28;20030;-40
2022/10/07 03:27:54;;;;;;;36.92;3.50;;;;;;;11.24;100.00;102325.78;5009745;28;20045;-41
2022/10/07 03:30:21;;;;;;;47.05;3.78;;;;;;;11.21;100.00;102319.69;5009544;28;20034;-40
2022/10/07 03:32:48;;;;;;;40.42;4.47;;;;;;;11.23;100.00;102321.41;5010159;28;20037;-40
2022/10/07 03:35:13;;;;;;;42.20;3.55;;;;;;;11.21;100.00;102325.09;5010097;28;20084;-40
2022/10/07 03:37:39;;;;;;;45.85;3.45;;;;;;;11.18;100.00;102325.38;5009954;28;20123;-40
2022/10/07 03:40:04;;;;;;;47.95;4.53;;;;;;;11.18;100.00;102330.78;5009394;28;20025;-40
2022/10/07 03:42:30;;;;;;;39.20;3.40;;;;;;;11.16;100.00;102322.03;5009998;28;20029;-40
2022/10/07 03:44:55;;;;;;;47.45;4.18;;;;;;;11.16;100.00;102327.41;5014069;28;20060;-40
2022/10/07 03:47:20;;;;;;;35.15;4.13;;;;;;;11.16;100.00;102323.84;5013822;28;20030;-40
2022/10/07 03:49:46;;;;;;;43.45;5.00;;;;;;;11.16;100.00;102322.03;5013567;28;20495;-40
2022/10/07 03:52:11;;;;;;;27.27;3.20;;;;;;;11.16;100.00;102322.03;5014282;28;20409;-40
2022/10/07 03:54:36;;;;;;;39.55;5.72;;;;;;;11.15;100.00;102317.59;4995842;28;20129;-40
2022/10/07 03:57:02;;;;;;;45.28;3.30;;;;;;;11.13;100.00;102316.91;5004637;28;20473;-40
2022/10/07 03:59:27;;;;;;;51.10;4.65;;;;;;;11.13;100.00;102316.91;5013603;28;20037;-40
2022/10/07 04:01:53;;;;;;;46.80;3.88;;;;;;;11.12;100.00;102322.47;5013031;28;20030;-40
2022/10/07 04:04:19;;;;;;;36.33;3.70;;;;;;;11.12;100.00;102309.84;5013730;28;20029;-40
2022/10/07 04:06:45;;;;;;;46.60;4.18;;;;;;;11.11;100.00;102318.91;5013601;28;20471;-40
2022/10/07 04:09:12;;;;;;;38.10;3.25;;;;;;;11.10;100.00;102306.44;5013113;28;20109;-40
2022/10/07 04:11:39;;;;;;;37.92;3.45;;;;;;;11.08;100.00;102302.19;5012871;28;20026;-40
2022/10/07 04:14:05;;;;;;;29.92;3.42;;;;;;;11.06;100.00;102299.66;5010709;28;20034;-40
2022/10/07 04:16:32;;;;;;;40.08;3.67;;;;;;;11.06;100.00;102302.34;5010215;28;20037;-41
2022/10/07 04:18:57;;;;;;;30.83;3.17;;;;;;;11.06;100.00;102296.97;5010825;28;20051;-40
2022/10/07 04:21:22;;;;;;;46.13;5.55;;;;;;;11.06;100.00;102294.28;5010788;28;20116;-40
2022/10/07 04:23:48;;;;;;;37.38;4.47;;;;;;;11.06;100.00;102294.28;5010275;28;20061;-40
2022/10/07 04:26:14;;;;;;;34.88;3.95;;;;;;;11.07;100.00;102295.13;5010511;28;20045;-40
2022/10/07 04:28:39;;;;;;;50.40;4.30;;;;;;;11.07;100.00;102290.56;5009967;28;20448;-41
2022/10/07 04:31:07;;;;;;;43.92;4.03;;;;;;;11.05;100.00;102284.47;5010167;28;20049;-40
2022/10/07 04:33:33;;;;;;;34.90;4.05;;;;;;;11.06;100.00;102286.19;5010252;28;20385;-40
2022/10/07 04:36:05;;;;;;;26.17;3.60;;;;;;;11.09;100.00;102287.75;5010485;28;20133;-40
2022/10/07 04:38:34;;;;;;;69.40;4.85;;;;;;;11.07;100.00;102282.50;5010056;28;20037;-41
2022/10/07 04:41:06;;;;;;;51.28;4.80;;;;;;;11.07;100.00;102284.34;5010396;28;20108;-41
2022/10/07 04:43:32;;;;;;;35.80;4.47;;;;;;;11.09;100.00;102279.66;5010037;28;20140;-40
2022/10/07 04:46:08;;;;;;;38.95;4.50;;;;;;;11.11;100.00;102280.31;5005457;28;20134;-40
2022/10/07 04:48:33;;;;;;;37.13;4.00;;;;;;;11.08;100.00;102284.16;5004079;28;20022;-41
2022/10/07 04:51:07;;;;;;;36.92;3.70;;;;;;;11.06;100.00;102278.09;5010203;28;20041;-40
2022/10/07 04:53:32;;;;;;;41.38;5.13;;;;;;;11.01;100.00;102268.78;5007721;28;20022;-40
2022/10/07 04:55:59;;;;;;;29.77;3.70;;;;;;;10.99;100.00;102271.63;5009146;28;20044;-39
2022/10/07 04:58:24;;;;;;;31.80;4.18;;;;;;;10.96;100.00;102272.75;5012093;28;20362;-41
2022/10/07 05:00:52;;;;;;;39.00;5.82;;;;;;;10.93;100.00;102267.69;5012896;28;20026;-41
2022/10/07 05:03:19;;;;;;;56.07;6.23;;;;;;;10.89;100.00;102274.34;5012837;28;20026;-40
2022/10/07 05:05:49;;;;;;;34.92;4.72;;;;;;;10.88;100.00;102269.13;5012111;28;20280;-41
2022/10/07 05:08:16;;;;;;;40.15;4.72;;;;;;;10.86;100.00;102268.41;5012381;28;20176;-40
2022/10/07 05:10:42;;;;;;;37.45;4.60;;;;;;;10.85;100.00;102272.09;5012446;28;20025;-40
2022/10/07 05:13:12;;;;;;;35.25;4.32;;;;;;;10.84;100.00;102267.72;5012437;28;20500;-40
2022/10/07 05:15:49;;;;;;;37.25;5.22;;;;;;;10.83;100.00;102260.63;5012316;28;20390;-42
2022/10/07 05:18:17;;;;;;;43.50;6.15;;;;;;;10.79;100.00;102259.22;5012288;28;20470;-40
2022/10/07 05:20:43;;;;;;;61.72;7.55;;;;;;;10.77;100.00;102252.16;4994983;28;20033;-41
2022/10/07 05:23:08;;;;;;;49.25;5.57;;;;;;;10.77;100.00;102245.94;5012403;28;20034;-40
2022/10/07 05:25:34;;;;;;;47.03;5.63;;;;;;;10.76;100.00;102249.59;5007176;28;20401;-40
2022/10/07 05:27:59;;;;;;;43.05;5.70;;;;;;;10.75;100.00;102247.91;4997692;28;20359;-40
2022/10/07 05:30:25;;;;;;;38.08;4.85;;;;;;;10.74;100.00;102247.06;4992660;28;20736;-40
2022/10/07 05:32:50;;;;;;;61.25;8.50;;;;;;;10.73;100.00;102250.75;4999042;28;20022;-40
2022/10/07 05:35:16;;;;;;;41.45;5.25;;;;;;;10.74;100.00;102247.06;5004968;28;20481;-40
2022/10/07 05:37:41;;;;;;;53.35;5.68;;;;;;;10.74;100.00;102241.69;5011815;28;20380;-40
2022/10/07 05:40:07;;;;;;;44.67;6.10;;;;;;;10.73;100.00;102239.13;5005222;28;20236;-40
2022/10/07 05:42:32;;;;;;;50.88;5.85;;;;;;;10.74;100.00;102247.06;5011955;28;20076;-40
2022/10/07 05:44:57;;;;;;;49.70;5.97;;;;;;;10.73;100.00;102234.59;5011839;28;20029;-41
2022/10/07 05:47:23;;;;;;;55.60;5.63;;;;;;;10.75;100.00;102227.22;5012130;28;20129;-40
2022/10/07 05:49:48;;;;;;;50.00;5.93;;;;;;;10.75;100.00;102231.75;5011375;28;20075;-40
2022/10/07 05:52:14;;;;;;;40.28;5.18;;;;;;;10.76;100.00;102228.06;5011581;28;20117;-40
2022/10/07 05:54:39;;;;;;;35.40;4.65;;;;;;;10.80;100.00;102225.94;5010627;28;20064;-40
2022/10/07 05:57:04;;;;;;;48.05;5.53;;;;;;;10.79;100.00;102226.91;5010856;28;20026;-40
2022/10/07 05:59:30;;;;;;;40.95;5.97;;;;;;;10.81;100.00;102227.63;5011746;28;20034;-41
2022/10/07 06:01:59;;;;;;;50.63;7.05;;;;;;;10.79;100.00;102225.06;5011607;28;20464;-41
2022/10/07 06:04:25;;;;;;;33.88;4.68;;;;;;;10.80;100.00;102223.25;5011284;28;20394;-40
2022/10/07 06:06:51;;;;;;;56.75;5.35;;;;;;;10.79;100.00;102226.91;5011171;28;20068;-40
2022/10/07 06:14:44;;;;;;;39.13;4.53;;;;;;;10.86;99.94;102222.63;5011093;28;20060;-40
2022/10/07 06:17:09;;;;;;;52.30;4.72;;;;;;;10.86;99.64;102222.63;5010624;28;20030;-40
2022/10/07 06:19:38;;;;;;;37.25;4.45;;;;;;;10.89;99.43;102222.31;5010657;28;20431;-40
2022/10/07 06:22:03;;;;;;;66.13;8.30;;;;;;;10.91;99.23;102225.72;5011180;28;20049;-40
2022/10/07 06:24:30;;;;;;;48.85;5.45;;;;;;;10.91;98.90;102221.19;5011200;28;20034;-40
2022/10/07 06:26:55;;;;;;;48.20;4.50;;;;;;;10.95;98.72;102224.41;5011310;28;20030;-40
2022/10/07 06:29:21;;;;;;;42.65;5.50;;;;;;;10.98;98.55;102218.75;5011182;28;20083;-40
2022/10/07 06:31:46;;;;;;;39.13;5.20;;;;;;;11.02;98.17;102217.44;5010932;28;20030;-40
2022/10/07 06:34:11;;;;;;;51.15;5.88;;;;;;;11.07;97.99;102217.81;5011086;28;20037;-40
2022/10/07 06:36:37;;;;;;;49.15;5.45;;;;;;;11.17;97.72;102226.69;5011071;28;20084;-40
2022/10/07 06:39:02;;;;;;;36.00;4.32;;;;;;;11.27;97.46;102239.25;5007030;28;20018;-40
2022/10/07 06:41:27;;;;;;;36.72;4.05;;;;;;;11.37;97.18;102221.16;4998806;28;20109;-41
2022/10/07 06:43:56;;;;;;;48.83;5.80;;;;;;;11.41;96.63;102227.94;5001049;28;20049;-40
2022/10/07 06:46:21;;;;;;;38.35;4.30;;;;;;;11.53;96.15;102225.84;4999544;28;20023;-40
2022/10/07 06:48:47;;;;;;;43.50;3.88;;;;;;;11.54;95.76;102225.72;5001231;28;20145;-40
2022/10/07 06:51:17;;;;;;;41.38;4.53;;;;;;;11.65;95.31;102227.31;4983185;28;20133;-40
2022/10/07 06:53:42;;;;;;;54.20;5.30;;;;;;;11.63;95.16;102227.47;4999395;28;20037;-41
2022/10/07 06:56:10;;;;;;;48.97;3.70;;;;;;;11.64;95.11;102223.78;4983030;28;20022;-39
2022/10/07 06:58:36;;;;;;;47.42;5.05;;;;;;;11.67;95.10;102216.41;5001353;28;20398;-40
2022/10/07 07:01:01;;;;;;;38.42;4.70;;;;;;;11.79;94.71;102224.06;4999099;28;20038;-40
2022/10/07 07:03:28;;;;;;;45.80;4.63;;;;;;;11.83;94.50;102224.63;5001000;28;20032;-41
2022/10/07 07:05:54;;;;;;;41.72;4.78;;;;;;;11.84;94.43;102220.91;5001577;28;20026;-40
2022/10/07 07:08:20;;;;;;;55.08;4.22;;;;;;;11.88;94.35;102218.78;4998871;28;20116;-40
2022/10/07 07:10:46;;;;;;;34.72;3.83;;;;;;;11.92;94.28;102225.56;5000914;28;20030;-41
2022/10/07 07:13:12;;;;;;;35.75;4.60;;;;;;;11.89;94.30;102218.63;5000234;28;20429;-39
2022/10/07 07:15:38;;;;;;;39.58;4.80;;;;;;;11.95;94.59;102214.44;4999251;28;20026;-39
2022/10/07 07:18:05;;;;;;;43.20;5.88;;;;;;;12.04;94.12;102221.59;5000677;28;20476;-39
2022/10/07 07:20:37;;;;;;;36.58;4.13;;;;;;;12.24;93.98;102222.22;5000980;28;20054;-40
2022/10/07 07:23:05;;;;;;;43.10;5.00;;;;;;;12.44;93.05;102222.88;4981212;28;20141;-41
2022/10/07 07:25:34;;;;;;;35.47;2.95;;;;;;;12.79;92.26;102218.28;5001327;28;20031;-41
2022/10/07 07:28:00;;;;;;;41.38;4.57;;;;;;;13.26;89.69;102215.06;4999781;28;20030;-41
2022/10/07 07:30:27;;;;;;;39.55;3.78;;;;;;;13.81;86.76;102219.88;5000908;28;20022;-41
2022/10/07 07:32:53;;;;;;;29.10;4.43;;;;;;;14.26;83.10;102218.47;5001263;28;20535;-41
2022/10/07 07:35:19;;;;;;;50.25;4.43;;;;;;;14.00;82.77;102213.25;4999765;28;20038;-41
2022/10/07 07:37:44;;;;;;;34.63;3.67;;;;;;;13.96;84.06;102217.34;4998784;28;20381;-42
2022/10/07 07:40:10;;;;;;;36.80;4.32;;;;;;;13.58;85.40;102212.41;5002481;28;20470;-42
2022/10/07 07:42:36;;;;;;;48.00;4.25;;;;;;;13.53;86.20;102214.81;5000655;28;20103;-42
2022/10/07 07:45:01;;;;;;;35.40;4.43;;;;;;;13.30;87.54;102211.06;5002305;28;20033;-43
2022/10/07 07:47:27;;;;;;;34.22;4.57;;;;;;;13.26;88.53;102206.94;5000503;28;20445;-41
2022/10/07 07:49:52;;;;;;;36.58;4.20;;;;;;;13.18;88.66;102207.78;5001799;28;20034;-42
2022/10/07 07:52:18;;;;;;;38.45;4.60;;;;;;;13.31;89.39;102207.31;4999117;28;20523;-42
2022/10/07 07:54:43;;;;;;;30.60;4.15;;;;;;;13.26;88.94;102207.81;5002021;28;20038;-42
2022/10/07 07:57:09;;;;;;;44.55;4.00;;;;;;;13.28;89.22;102213.06;5001563;28;20022;-42
2022/10/07 07:59:36;;;;;;;44.78;4.72;;;;;;;13.24;89.35;102217.91;5000589;28;20070;-43
2022/10/07 08:02:02;;;;;;;37.60;4.22;;;;;;;13.19;89.98;102220.25;5001390;28;20065;-42
2022/10/07 08:04:28;;;;;;;42.05;5.03;;;;;;;13.28;89.82;102215.78;4999933;28;20061;-40
2022/10/07 08:06:54;;;;;;;53.58;4.43;;;;;;;13.19;89.88;102217.56;5000306;28;20396;-40
2022/10/07 08:09:19;;;;;;;40.40;4.75;;;;;;;13.13;90.44;102205.56;5002045;28;20022;-41
2022/10/07 08:11:45;;;;;;;43.53;4.45;;;;;;;13.13;90.64;102210.13;5001827;28;20028;-40
2022/10/07 08:14:11;;;;;;;33.83;3.67;;;;;;;13.14;90.65;102198.31;4999711;28;20381;-40
2022/10/07 08:16:37;;;;;;;33.45;4.75;;;;;;;13.17;90.52;102200.69;4982429;28;20080;-40
2022/10/07 08:19:03;;;;;;;40.05;4.85;;;;;;;13.18;90.52;102199.66;5001309;28;20030;-42
2022/10/07 08:21:31;;;;;;;38.15;4.40;;;;;;;13.27;90.45;102197.84;4999588;28;20105;-43
2022/10/07 08:23:58;;;;;;;26.33;4.25;;;;;;;13.35;90.32;102198.72;5000401;28;20034;-41
2022/10/07 08:26:24;;;;;;;42.05;4.22;;;;;;;13.38;90.04;102184.03;5000664;28;20022;-40
2022/10/07 08:28:50;;;;;;;37.00;3.92;;;;;;;13.43;89.98;102195.19;4999533;28;20022;-41
2022/10/07 08:31:18;;;;;;;38.00;4.38;;;;;;;13.48;89.50;102186.53;5003254;28;20064;-41
2022/10/07 08:33:43;;;;;;;;;;;;;;;13.52;89.20;102187.91;5004889;28;20027;-41
2022/10/07 08:36:28;;;;;;;33.70;3.85;;;;;;;13.47;89.49;102180.28;5002369;28;20291;-41
2022/10/07 08:38:54;;;;;;;41.78;4.00;;;;;;;13.37;89.54;102169.63;5003162;28;20497;-40
2022/10/07 08:41:55;;;;;;;38.78;4.57;;;;;;;13.35;89.78;102171.69;5003447;28;20041;-41
2022/10/07 08:44:34;;;;;;;40.08;4.63;;;;;;;13.34;89.99;102169.97;4987025;28;20018;-41
2022/10/07 08:47:23;;;;;;;38.35;4.85;;;;;;;13.29;90.23;102182.31;4984960;28;20029;-41
2022/10/07 08:50:12;;;;;;;44.50;4.07;;;;;;;13.24;90.70;102182.78;4987310;28;20026;-41
2022/10/07 08:52:40;;;;;;;31.58;3.53;;;;;;;13.23;90.91;102178.38;4983537;28;20428;-42
2022/10/07 08:55:16;;;;;;;38.70;4.20;;;;;;;13.27;91.27;102178.91;5003649;28;20037;-41
2022/10/07 08:57:50;;;;;;;39.30;4.43;;;;;;;13.29;91.11;102174.19;4985784;28;20462;-42
2022/10/07 09:00:19;;;;;;;53.20;3.97;;;;;;;13.36;91.10;102165.25;5002710;28;20022;-41
2022/10/07 09:03:01;;;;;;;44.88;4.90;;;;;;;13.46;90.73;102173.22;4983674;28;20117;-42
2022/10/07 09:05:33;;;;;;;40.55;4.10;;;;;;;13.58;90.52;102171.84;4983900;28;20081;-41
2022/10/07 09:08:02;;;;;;;43.22;4.97;;;;;;;13.73;89.67;102169.31;4984784;28;20076;-42
2022/10/07 09:10:37;;;;;;;34.60;3.92;;;;;;;13.96;88.70;102165.91;4981104;28;20072;-42
2022/10/07 09:13:20;;;;;;;35.72;4.70;;;;;;;14.13;87.46;102170.25;4992354;28;20484;-40
2022/10/07 09:15:50;;;;;;;31.38;4.70;;;;;;;14.25;86.80;102177.00;4973699;28;20030;-42
2022/10/07 09:18:20;;;;;;;52.80;5.53;;;;;;;14.31;86.63;102171.91;4973994;28;20138;-41
2022/10/07 09:20:52;;;;;;;28.60;5.13;;;;;;;14.29;86.35;102169.34;4991726;28;20084;-41
2022/10/07 09:23:18;;;;;;;36.00;4.20;;;;;;;14.37;86.43;102171.19;4974896;28;20034;-41
2022/10/07 09:25:43;;;;;;;47.75;5.63;;;;;;;14.36;86.33;102169.53;4975062;28;20395;-41
2022/10/07 09:28:14;;;;;;;31.70;4.15;;;;;;;14.36;86.75;102162.22;4992888;28;20109;-43
2022/10/07 09:30:41;;;;;;;46.97;4.30;;;;;;;14.40;86.74;102168.13;4992870;28;20062;-42
2022/10/07 09:33:13;;;;;;;31.48;4.03;;;;;;;14.41;86.22;102164.44;4992933;28;20030;-42
2022/10/07 09:35:38;;;;;;;27.80;3.72;;;;;;;14.50;86.57;102155.22;4992571;28;20026;-42
2022/10/07 09:38:08;;;;;;;43.22;4.18;;;;;;;14.63;86.12;102155.53;4975185;28;20113;-42
2022/10/07 09:43:36;;;;;;;48.17;5.03;;;;;;;14.79;83.98;102165.47;4977680;28;20608;-40
2022/10/07 09:46:01;;;;;;;37.00;4.60;;;;;;;14.77;84.17;102147.69;4975108;28;20070;-42
2022/10/07 09:48:32;;;;;;;33.35;4.10;;;;;;;14.62;84.28;102145.75;4974864;28;20054;-42
2022/10/07 09:51:17;;;;;;;46.72;4.93;;;;;;;14.59;84.72;102146.09;4992573;28;20112;-43
2022/10/07 09:53:58;;;;;;;34.78;4.35;;;;;;;14.68;84.36;102142.31;4992706;28;20033;-42
2022/10/07 09:56:44;;;;;;;39.15;4.93;;;;;;;14.75;84.37;102137.03;4992574;28;20421;-42
2022/10/07 09:59:21;;;;;;;50.30;4.57;;;;;;;14.74;84.18;102134.50;4992244;28;20096;-44
2022/10/07 10:01:59;;;;;;;39.25;4.90;;;;;;;14.73;84.48;102132.81;4992454;28;20062;-42
2022/10/07 10:04:35;;;;;;;52.85;6.03;;;;;;;14.52;84.12;102131.53;4974965;28;20050;-41
2022/10/07 10:07:05;;;;;;;37.38;5.05;;;;;;;14.41;84.44;102123.81;4992073;28;20549;-42
2022/10/07 10:09:31;;;;;;;38.63;4.97;;;;;;;14.43;84.99;102116.34;4992047;28;20034;-42
2022/10/07 10:12:20;;;;;;;37.47;5.00;;;;;;;14.40;84.52;102116.69;4974695;28;20097;-42
2022/10/07 10:14:54;;;;;;;35.00;3.78;;;;;;;14.44;83.96;102118.03;4991409;28;20042;-42
2022/10/07 10:17:27;;;;;;;34.25;4.72;;;;;;;14.54;83.75;102099.72;4992048;28;20545;-42
2022/10/07 10:19:52;;;;;;;40.17;4.50;;;;;;;14.74;83.26;102096.56;4992019;28;20524;-42
2022/10/07 10:22:29;;;;;;;31.88;4.72;;;;;;;14.79;82.33;102095.00;4991850;28;20022;-42
2022/10/07 10:28:04;;;;;;;31.60;4.15;;;;;;;14.82;81.85;102094.63;4977145;28;20442;-42
2022/10/07 10:30:30;;;;;;;28.30;4.70;;;;;;;14.95;81.57;102087.78;4973927;28;20018;-41
2022/10/07 10:33:52;;;;;;;28.13;4.88;;;;;;;15.06;80.92;102090.94;4974353;28;20502;-42
2022/10/07 10:36:22;;;;;;;36.10;5.60;;;;;;;15.24;80.38;102084.34;4912084;29;20137;-41
2022/10/07 10:39:10;;;;;;;43.33;4.00;;;;;;;15.32;79.29;102076.13;4989045;28;20045;-42
2022/10/07 10:41:49;;;;;;;41.42;5.03;;;;;;;15.46;78.59;102072.63;4973836;28;20028;-42
2022/10/07 10:44:29;;;;;;;44.65;4.97;;;;;;;15.49;79.19;102074.94;4974143;28;20032;-41
2022/10/07 10:47:02;;;;;;;38.63;4.45;;;;;;;15.30;78.19;102076.31;4974094;28;20022;-42
2022/10/07 10:49:29;;;;;;;38.03;5.57;;;;;;;15.23;78.22;102063.69;4974006;28;20034;-42
2022/10/07 10:52:33;;;;;;;39.60;4.93;;;;;;;15.15;79.14;102076.28;4990535;28;20064;-41
2022/10/07 10:55:16;;;;;;;43.28;5.30;;;;;;;15.13;79.34;102062.03;4950979;28;20042;-42
2022/10/07 10:58:11;;;;;;;38.20;5.40;;;;;;;15.23;79.11;102063.69;4991264;28;20486;-41
2022/10/07 11:01:19;;;;;;;38.10;5.18;;;;;;;15.28;79.55;102061.25;4920943;28;20097;-42
2022/10/07 11:04:07;;;;;;;39.72;4.93;;;;;;;15.42;79.16;102051.47;4974738;28;20049;-42
2022/10/07 11:06:34;;;;;;;43.38;5.22;;;;;;;15.49;79.15;102063.25;4991055;28;20048;-42
2022/10/07 11:09:00;;;;;;;37.67;4.63;;;;;;;15.29;78.92;102043.94;4991120;28;20022;-41
2022/10/07 11:11:26;;;;;;;35.70;4.22;;;;;;;15.19;79.11;102051.50;4990632;28;20034;-41
2022/10/07 11:14:02;;;;;;;29.77;3.83;;;;;;;15.14;80.49;102050.19;4991137;28;20052;-41
2022/10/07 11:16:37;;;;;;;28.98;3.35;;;;;;;15.04;80.54;102055.00;4973271;28;20046;-41
2022/10/07 11:19:02;;;;;;;28.48;4.80;;;;;;;14.96;81.71;102068.63;4973640;28;20052;-41
2022/10/07 11:21:38;;;;;;;33.63;3.60;;;;;;;14.74;83.66;102061.31;4990901;28;20022;-40
2022/10/07 11:24:16;;;;;;;26.52;4.03;;;;;;;14.76;85.25;102062.00;4973293;28;20540;-41
2022/10/07 11:27:00;;;;;;;43.70;4.93;;;;;;;14.70;86.14;102058.97;4973384;28;20030;-40
2022/10/07 11:29:37;;;;;;;38.45;5.32;;;;;;;14.82;86.23;102042.28;4990482;28;20026;-41
2022/10/07 11:32:07;;;;;;;24.70;3.40;;;;;;;14.89;85.58;102032.44;4990856;28;20109;-41
2022/10/07 11:34:52;;;;;;;41.03;3.75;;;;;;;14.75;85.51;102022.38;4973271;28;20026;-40
2022/10/07 11:37:36;;;;;;;30.15;3.78;;;;;;;14.70;86.01;102029.19;4990646;28;20026;-42
2022/10/07 11:40:06;;;;;;;37.20;3.53;;;;;;;14.82;86.01;102015.19;4973431;28;20481;-42